sensor_id;sensor_type;location;lat;lon;timestamp;P1;durP1;ratioP1;P2;durP2;ratioP2
81952;SDS011;71454;55.476;14.282;2024-03-08T00:00:13;7.75;;;2.17;;
81952;SDS011;71454;55.476;14.282;2024-03-08T00:02:39;7.70;;;2.60;;
81952;SDS011;71454;55.476;14.282;2024-03-08T00:05:05;6.57;;;2.42;;
81952;SDS011;71454;55.476;14.282;2024-03-08T00:07:30;5.78;;;2.38;;
81952;SDS011;71454;55.476;14.282;2024-03-08T00:09:56;7.15;;;2.75;;
81952;SDS011;71454;55.476;14.282;2024-03-08T00:12:21;9.40;;;2.67;;
81952;SDS011;71454;55.476;14.282;2024-03-08T00:14:46;8.67;;;2.33;;
81952;SDS011;71454;55.476;14.282;2024-03-08T00:17:12;6.93;;;2.42;;
81952;SDS011;71454;55.476;14.282;2024-03-08T00:19:37;8.20;;;2.38;;
81952;SDS011;71454;55.476;14.282;2024-03-08T00:22:02;7.70;;;2.40;;
81952;SDS011;71454;55.476;14.282;2024-03-08T00:24:27;6.27;;;2.70;;
81952;SDS011;71454;55.476;14.282;2024-03-08T00:26:54;5.82;;;2.40;;
81952;SDS011;71454;55.476;14.282;2024-03-08T00:29:19;7.07;;;2.88;;
81952;SDS011;71454;55.476;14.282;2024-03-08T00:31:44;7.10;;;2.37;;
81952;SDS011;71454;55.476;14.282;2024-03-08T00:34:09;6.87;;;2.67;;
81952;SDS011;71454;55.476;14.282;2024-03-08T00:36:37;7.13;;;2.60;;
81952;SDS011;71454;55.476;14.282;2024-03-08T00:39:02;6.40;;;2.53;;
81952;SDS011;71454;55.476;14.282;2024-03-08T00:41:31;6.75;;;2.58;;
81952;SDS011;71454;55.476;14.282;2024-03-08T00:43:56;8.57;;;2.88;;
81952;SDS011;71454;55.476;14.282;2024-03-08T00:46:21;6.43;;;2.85;;
81952;SDS011;71454;55.476;14.282;2024-03-08T00:48:47;7.87;;;2.57;;
81952;SDS011;71454;55.476;14.282;2024-03-08T00:51:12;7.82;;;2.65;;
81952;SDS011;71454;55.476;14.282;2024-03-08T00:53:37;6.47;;;2.85;;
81952;SDS011;71454;55.476;14.282;2024-03-08T00:56:03;8.50;;;2.67;;
81952;SDS011;71454;55.476;14.282;2024-03-08T00:58:29;6.50;;;2.53;;
81952;SDS011;71454;55.476;14.282;2024-03-08T01:00:55;7.53;;;2.42;;
81952;SDS011;71454;55.476;14.282;2024-03-08T01:03:22;6.95;;;2.60;;
81952;SDS011;71454;55.476;14.282;2024-03-08T01:05:47;11.20;;;3.50;;
81952;SDS011;71454;55.476;14.282;2024-03-08T01:08:12;6.23;;;2.50;;
81952;SDS011;71454;55.476;14.282;2024-03-08T01:10:38;9.40;;;3.00;;
81952;SDS011;71454;55.476;14.282;2024-03-08T01:13:03;7.47;;;2.53;;
81952;SDS011;71454;55.476;14.282;2024-03-08T01:15:28;7.15;;;2.70;;
81952;SDS011;71454;55.476;14.282;2024-03-08T01:17:54;6.45;;;2.70;;
81952;SDS011;71454;55.476;14.282;2024-03-08T01:20:19;6.30;;;2.45;;
81952;SDS011;71454;55.476;14.282;2024-03-08T01:22:44;7.03;;;2.65;;
81952;SDS011;71454;55.476;14.282;2024-03-08T01:25:09;6.60;;;2.50;;
81952;SDS011;71454;55.476;14.282;2024-03-08T01:27:35;8.93;;;2.15;;
81952;SDS011;71454;55.476;14.282;2024-03-08T01:30:02;9.27;;;2.58;;
81952;SDS011;71454;55.476;14.282;2024-03-08T01:32:27;7.18;;;2.50;;
81952;SDS011;71454;55.476;14.282;2024-03-08T01:34:52;7.88;;;3.05;;
81952;SDS011;71454;55.476;14.282;2024-03-08T01:37:18;5.80;;;2.33;;
81952;SDS011;71454;55.476;14.282;2024-03-08T01:39:43;6.82;;;2.42;;
81952;SDS011;71454;55.476;14.282;2024-03-08T01:42:08;7.60;;;2.75;;
81952;SDS011;71454;55.476;14.282;2024-03-08T01:44:37;7.63;;;2.58;;
81952;SDS011;71454;55.476;14.282;2024-03-08T01:47:02;7.00;;;2.40;;
81952;SDS011;71454;55.476;14.282;2024-03-08T01:49:28;6.72;;;2.63;;
81952;SDS011;71454;55.476;14.282;2024-03-08T01:51:53;7.20;;;2.40;;
81952;SDS011;71454;55.476;14.282;2024-03-08T01:54:21;8.45;;;3.03;;
81952;SDS011;71454;55.476;14.282;2024-03-08T01:56:48;6.68;;;2.60;;
81952;SDS011;71454;55.476;14.282;2024-03-08T01:59:13;6.82;;;2.50;;
81952;SDS011;71454;55.476;14.282;2024-03-08T02:01:39;7.18;;;2.65;;
81952;SDS011;71454;55.476;14.282;2024-03-08T02:04:05;6.78;;;2.88;;
81952;SDS011;71454;55.476;14.282;2024-03-08T02:06:32;8.00;;;2.70;;
81952;SDS011;71454;55.476;14.282;2024-03-08T02:08:57;7.20;;;2.60;;
81952;SDS011;71454;55.476;14.282;2024-03-08T02:11:23;6.55;;;2.67;;
81952;SDS011;71454;55.476;14.282;2024-03-08T02:13:48;8.02;;;2.83;;
81952;SDS011;71454;55.476;14.282;2024-03-08T02:16:20;8.73;;;3.15;;
81952;SDS011;71454;55.476;14.282;2024-03-08T02:18:45;6.72;;;2.53;;
81952;SDS011;71454;55.476;14.282;2024-03-08T02:21:10;8.70;;;2.80;;
81952;SDS011;71454;55.476;14.282;2024-03-08T02:23:36;7.07;;;2.97;;
81952;SDS011;71454;55.476;14.282;2024-03-08T02:26:02;7.90;;;3.00;;
81952;SDS011;71454;55.476;14.282;2024-03-08T02:28:29;7.25;;;2.63;;
81952;SDS011;71454;55.476;14.282;2024-03-08T02:30:55;7.30;;;2.70;;
81952;SDS011;71454;55.476;14.282;2024-03-08T02:33:20;7.05;;;2.28;;
81952;SDS011;71454;55.476;14.282;2024-03-08T02:35:47;6.32;;;2.45;;
81952;SDS011;71454;55.476;14.282;2024-03-08T02:38:13;9.23;;;2.85;;
81952;SDS011;71454;55.476;14.282;2024-03-08T02:40:41;8.68;;;3.28;;
81952;SDS011;71454;55.476;14.282;2024-03-08T02:43:06;8.85;;;3.05;;
81952;SDS011;71454;55.476;14.282;2024-03-08T02:45:31;10.43;;;2.92;;
81952;SDS011;71454;55.476;14.282;2024-03-08T02:47:57;25.67;;;3.27;;
81952;SDS011;71454;55.476;14.282;2024-03-08T02:50:22;8.38;;;2.28;;
81952;SDS011;71454;55.476;14.282;2024-03-08T02:52:48;12.82;;;1.88;;
81952;SDS011;71454;55.476;14.282;2024-03-08T02:55:13;10.57;;;1.58;;
81952;SDS011;71454;55.476;14.282;2024-03-08T02:57:41;14.45;;;2.10;;
81952;SDS011;71454;55.476;14.282;2024-03-08T03:00:07;8.77;;;1.80;;
81952;SDS011;71454;55.476;14.282;2024-03-08T03:02:35;9.25;;;1.90;;
81952;SDS011;71454;55.476;14.282;2024-03-08T03:05:01;10.43;;;2.00;;
81952;SDS011;71454;55.476;14.282;2024-03-08T03:07:30;12.38;;;1.83;;
81952;SDS011;71454;55.476;14.282;2024-03-08T03:09:55;7.72;;;1.60;;
81952;SDS011;71454;55.476;14.282;2024-03-08T03:12:21;14.93;;;1.87;;
81952;SDS011;71454;55.476;14.282;2024-03-08T03:14:46;10.70;;;1.97;;
81952;SDS011;71454;55.476;14.282;2024-03-08T03:17:12;9.93;;;2.08;;
81952;SDS011;71454;55.476;14.282;2024-03-08T03:19:40;10.25;;;2.20;;
81952;SDS011;71454;55.476;14.282;2024-03-08T03:22:05;17.88;;;3.25;;
81952;SDS011;71454;55.476;14.282;2024-03-08T03:24:32;16.50;;;2.50;;
81952;SDS011;71454;55.476;14.282;2024-03-08T03:26:57;29.55;;;3.70;;
81952;SDS011;71454;55.476;14.282;2024-03-08T03:29:23;15.35;;;2.70;;
81952;SDS011;71454;55.476;14.282;2024-03-08T03:31:48;19.80;;;2.85;;
81952;SDS011;71454;55.476;14.282;2024-03-08T03:34:13;15.77;;;2.80;;
81952;SDS011;71454;55.476;14.282;2024-03-08T03:36:39;16.27;;;2.58;;
81952;SDS011;71454;55.476;14.282;2024-03-08T03:39:15;27.02;;;3.00;;
81952;SDS011;71454;55.476;14.282;2024-03-08T03:41:45;30.20;;;3.67;;
81952;SDS011;71454;55.476;14.282;2024-03-08T03:44:11;27.52;;;3.70;;
81952;SDS011;71454;55.476;14.282;2024-03-08T03:46:36;29.67;;;3.50;;
81952;SDS011;71454;55.476;14.282;2024-03-08T03:49:01;17.17;;;2.97;;
81952;SDS011;71454;55.476;14.282;2024-03-08T03:51:28;20.10;;;3.00;;
81952;SDS011;71454;55.476;14.282;2024-03-08T03:53:54;23.80;;;3.38;;
81952;SDS011;71454;55.476;14.282;2024-03-08T03:56:25;16.70;;;3.05;;
81952;SDS011;71454;55.476;14.282;2024-03-08T03:58:50;24.70;;;3.28;;
81952;SDS011;71454;55.476;14.282;2024-03-08T04:01:16;15.38;;;3.28;;
81952;SDS011;71454;55.476;14.282;2024-03-08T04:03:41;20.53;;;3.40;;
81952;SDS011;71454;55.476;14.282;2024-03-08T04:06:08;15.02;;;3.20;;
81952;SDS011;71454;55.476;14.282;2024-03-08T04:08:33;14.95;;;3.08;;
81952;SDS011;71454;55.476;14.282;2024-03-08T04:10:59;18.33;;;3.33;;
81952;SDS011;71454;55.476;14.282;2024-03-08T04:13:25;21.73;;;3.83;;
81952;SDS011;71454;55.476;14.282;2024-03-08T04:15:50;14.10;;;3.57;;
81952;SDS011;71454;55.476;14.282;2024-03-08T04:18:15;13.20;;;2.63;;
81952;SDS011;71454;55.476;14.282;2024-03-08T04:20:41;18.30;;;4.03;;
81952;SDS011;71454;55.476;14.282;2024-03-08T04:23:06;13.30;;;3.10;;
81952;SDS011;71454;55.476;14.282;2024-03-08T04:25:31;10.95;;;2.67;;
81952;SDS011;71454;55.476;14.282;2024-03-08T04:27:57;13.05;;;3.60;;
81952;SDS011;71454;55.476;14.282;2024-03-08T04:30:22;10.67;;;3.03;;
81952;SDS011;71454;55.476;14.282;2024-03-08T04:32:47;15.05;;;2.83;;
81952;SDS011;71454;55.476;14.282;2024-03-08T04:35:13;13.15;;;3.00;;
81952;SDS011;71454;55.476;14.282;2024-03-08T04:37:39;18.77;;;3.35;;
81952;SDS011;71454;55.476;14.282;2024-03-08T04:40:05;12.32;;;2.70;;
81952;SDS011;71454;55.476;14.282;2024-03-08T04:42:30;14.40;;;2.80;;
81952;SDS011;71454;55.476;14.282;2024-03-08T04:44:57;12.13;;;2.75;;
81952;SDS011;71454;55.476;14.282;2024-03-08T04:47:23;12.95;;;2.95;;
81952;SDS011;71454;55.476;14.282;2024-03-08T04:49:48;15.87;;;3.07;;
81952;SDS011;71454;55.476;14.282;2024-03-08T04:52:13;17.77;;;3.55;;
81952;SDS011;71454;55.476;14.282;2024-03-08T04:54:38;12.90;;;2.63;;
81952;SDS011;71454;55.476;14.282;2024-03-08T04:57:04;17.30;;;3.13;;
81952;SDS011;71454;55.476;14.282;2024-03-08T04:59:30;14.98;;;2.63;;
81952;SDS011;71454;55.476;14.282;2024-03-08T05:01:56;15.85;;;2.83;;
81952;SDS011;71454;55.476;14.282;2024-03-08T05:04:21;21.73;;;3.30;;
81952;SDS011;71454;55.476;14.282;2024-03-08T05:06:47;13.95;;;2.47;;
81952;SDS011;71454;55.476;14.282;2024-03-08T05:09:12;13.65;;;3.38;;
81952;SDS011;71454;55.476;14.282;2024-03-08T05:11:44;12.75;;;2.50;;
81952;SDS011;71454;55.476;14.282;2024-03-08T05:14:10;19.90;;;2.65;;
81952;SDS011;71454;55.476;14.282;2024-03-08T05:16:35;11.85;;;2.63;;
81952;SDS011;71454;55.476;14.282;2024-03-08T05:19:01;10.52;;;2.50;;
81952;SDS011;71454;55.476;14.282;2024-03-08T05:21:26;9.73;;;2.22;;
81952;SDS011;71454;55.476;14.282;2024-03-08T05:23:52;8.35;;;1.92;;
81952;SDS011;71454;55.476;14.282;2024-03-08T05:26:17;16.70;;;2.40;;
81952;SDS011;71454;55.476;14.282;2024-03-08T05:28:42;14.18;;;2.35;;
81952;SDS011;71454;55.476;14.282;2024-03-08T05:31:08;15.13;;;2.40;;
81952;SDS011;71454;55.476;14.282;2024-03-08T05:33:33;19.85;;;2.63;;
81952;SDS011;71454;55.476;14.282;2024-03-08T05:36:02;12.32;;;2.03;;
81952;SDS011;71454;55.476;14.282;2024-03-08T05:38:27;12.68;;;2.50;;
81952;SDS011;71454;55.476;14.282;2024-03-08T05:40:53;13.55;;;2.13;;
81952;SDS011;71454;55.476;14.282;2024-03-08T05:43:18;18.80;;;2.67;;
81952;SDS011;71454;55.476;14.282;2024-03-08T05:45:44;13.13;;;2.50;;
81952;SDS011;71454;55.476;14.282;2024-03-08T05:48:10;14.77;;;2.35;;
81952;SDS011;71454;55.476;14.282;2024-03-08T05:50:37;10.23;;;2.22;;
81952;SDS011;71454;55.476;14.282;2024-03-08T05:53:03;12.52;;;2.53;;
81952;SDS011;71454;55.476;14.282;2024-03-08T05:55:30;13.05;;;2.10;;
81952;SDS011;71454;55.476;14.282;2024-03-08T05:57:55;15.13;;;2.50;;
81952;SDS011;71454;55.476;14.282;2024-03-08T06:00:21;18.23;;;2.75;;
81952;SDS011;71454;55.476;14.282;2024-03-08T06:02:47;14.80;;;3.05;;
81952;SDS011;71454;55.476;14.282;2024-03-08T06:05:12;15.40;;;2.43;;
81952;SDS011;71454;55.476;14.282;2024-03-08T06:07:37;14.40;;;2.33;;
81952;SDS011;71454;55.476;14.282;2024-03-08T06:10:08;13.32;;;2.17;;
81952;SDS011;71454;55.476;14.282;2024-03-08T06:12:35;7.90;;;2.20;;
81952;SDS011;71454;55.476;14.282;2024-03-08T06:15:05;13.23;;;2.78;;
81952;SDS011;71454;55.476;14.282;2024-03-08T06:17:30;14.77;;;2.25;;
81952;SDS011;71454;55.476;14.282;2024-03-08T06:19:55;14.77;;;2.20;;
81952;SDS011;71454;55.476;14.282;2024-03-08T06:22:21;12.87;;;2.10;;
81952;SDS011;71454;55.476;14.282;2024-03-08T06:24:46;14.70;;;2.40;;
81952;SDS011;71454;55.476;14.282;2024-03-08T06:27:12;17.33;;;2.50;;
81952;SDS011;71454;55.476;14.282;2024-03-08T06:29:37;8.30;;;2.00;;
81952;SDS011;71454;55.476;14.282;2024-03-08T06:32:02;14.88;;;1.98;;
81952;SDS011;71454;55.476;14.282;2024-03-08T06:34:28;15.05;;;1.77;;
81952;SDS011;71454;55.476;14.282;2024-03-08T06:36:53;9.32;;;1.60;;
81952;SDS011;71454;55.476;14.282;2024-03-08T06:39:25;11.18;;;2.00;;
81952;SDS011;71454;55.476;14.282;2024-03-08T06:41:51;6.70;;;1.60;;
81952;SDS011;71454;55.476;14.282;2024-03-08T06:44:16;7.82;;;1.58;;
81952;SDS011;71454;55.476;14.282;2024-03-08T06:46:41;7.53;;;1.90;;
81952;SDS011;71454;55.476;14.282;2024-03-08T06:49:07;10.33;;;1.67;;
81952;SDS011;71454;55.476;14.282;2024-03-08T06:51:32;5.63;;;1.40;;
81952;SDS011;71454;55.476;14.282;2024-03-08T06:53:58;5.73;;;1.87;;
81952;SDS011;71454;55.476;14.282;2024-03-08T06:56:23;6.32;;;1.30;;
81952;SDS011;71454;55.476;14.282;2024-03-08T06:58:48;6.65;;;1.63;;
81952;SDS011;71454;55.476;14.282;2024-03-08T07:01:14;4.32;;;1.17;;
81952;SDS011;71454;55.476;14.282;2024-03-08T07:03:43;4.00;;;1.05;;
81952;SDS011;71454;55.476;14.282;2024-03-08T07:06:10;4.85;;;1.10;;
81952;SDS011;71454;55.476;14.282;2024-03-08T07:08:35;7.60;;;1.42;;
81952;SDS011;71454;55.476;14.282;2024-03-08T07:11:00;5.67;;;1.63;;
81952;SDS011;71454;55.476;14.282;2024-03-08T07:13:26;5.70;;;1.42;;
81952;SDS011;71454;55.476;14.282;2024-03-08T07:15:53;5.95;;;1.42;;
81952;SDS011;71454;55.476;14.282;2024-03-08T07:18:18;6.30;;;1.60;;
81952;SDS011;71454;55.476;14.282;2024-03-08T07:20:43;5.27;;;0.97;;
81952;SDS011;71454;55.476;14.282;2024-03-08T07:23:09;4.50;;;1.17;;
81952;SDS011;71454;55.476;14.282;2024-03-08T07:25:35;6.70;;;1.67;;
81952;SDS011;71454;55.476;14.282;2024-03-08T07:28:00;5.50;;;1.47;;
81952;SDS011;71454;55.476;14.282;2024-03-08T07:30:26;5.30;;;1.30;;
81952;SDS011;71454;55.476;14.282;2024-03-08T07:33:10;4.38;;;1.10;;
81952;SDS011;71454;55.476;14.282;2024-03-08T07:35:38;3.97;;;1.23;;
81952;SDS011;71454;55.476;14.282;2024-03-08T07:38:05;4.55;;;1.40;;
81952;SDS011;71454;55.476;14.282;2024-03-08T07:40:31;4.88;;;1.50;;
81952;SDS011;71454;55.476;14.282;2024-03-08T07:42:56;4.60;;;1.60;;
81952;SDS011;71454;55.476;14.282;2024-03-08T07:45:21;6.07;;;1.83;;
81952;SDS011;71454;55.476;14.282;2024-03-08T07:47:47;7.05;;;1.38;;
81952;SDS011;71454;55.476;14.282;2024-03-08T07:50:12;6.13;;;1.75;;
81952;SDS011;71454;55.476;14.282;2024-03-08T07:52:41;6.28;;;1.95;;
81952;SDS011;71454;55.476;14.282;2024-03-08T07:55:06;7.65;;;1.52;;
81952;SDS011;71454;55.476;14.282;2024-03-08T07:57:32;5.40;;;1.25;;
81952;SDS011;71454;55.476;14.282;2024-03-08T07:59:58;4.55;;;1.55;;
81952;SDS011;71454;55.476;14.282;2024-03-08T08:02:23;4.20;;;1.38;;
81952;SDS011;71454;55.476;14.282;2024-03-08T08:04:49;6.00;;;1.50;;
81952;SDS011;71454;55.476;14.282;2024-03-08T08:07:14;4.13;;;1.30;;
81952;SDS011;71454;55.476;14.282;2024-03-08T08:09:39;4.38;;;1.30;;
81952;SDS011;71454;55.476;14.282;2024-03-08T08:12:05;2.70;;;0.98;;
81952;SDS011;71454;55.476;14.282;2024-03-08T08:14:30;4.63;;;1.27;;
81952;SDS011;71454;55.476;14.282;2024-03-08T08:16:56;3.20;;;1.20;;
81952;SDS011;71454;55.476;14.282;2024-03-08T08:19:22;5.75;;;1.27;;
81952;SDS011;71454;55.476;14.282;2024-03-08T08:21:47;4.45;;;1.20;;
81952;SDS011;71454;55.476;14.282;2024-03-08T08:24:13;4.53;;;1.20;;
81952;SDS011;71454;55.476;14.282;2024-03-08T08:26:38;3.97;;;1.02;;
81952;SDS011;71454;55.476;14.282;2024-03-08T08:29:03;4.97;;;1.30;;
81952;SDS011;71454;55.476;14.282;2024-03-08T08:31:29;4.75;;;1.30;;
81952;SDS011;71454;55.476;14.282;2024-03-08T08:33:55;3.45;;;1.35;;
81952;SDS011;71454;55.476;14.282;2024-03-08T08:36:24;6.82;;;2.80;;
81952;SDS011;71454;55.476;14.282;2024-03-08T08:38:50;4.30;;;1.35;;
81952;SDS011;71454;55.476;14.282;2024-03-08T08:41:15;7.30;;;1.85;;
81952;SDS011;71454;55.476;14.282;2024-03-08T08:43:42;3.63;;;1.20;;
81952;SDS011;71454;55.476;14.282;2024-03-08T08:46:09;3.05;;;0.80;;
81952;SDS011;71454;55.476;14.282;2024-03-08T08:48:34;3.15;;;0.95;;
81952;SDS011;71454;55.476;14.282;2024-03-08T08:51:00;3.97;;;1.20;;
81952;SDS011;71454;55.476;14.282;2024-03-08T08:53:25;4.10;;;1.15;;
81952;SDS011;71454;55.476;14.282;2024-03-08T08:55:50;3.38;;;1.02;;
81952;SDS011;71454;55.476;14.282;2024-03-08T08:58:17;3.60;;;1.00;;
81952;SDS011;71454;55.476;14.282;2024-03-08T09:00:43;3.67;;;0.90;;
81952;SDS011;71454;55.476;14.282;2024-03-08T09:03:09;4.78;;;1.20;;
81952;SDS011;71454;55.476;14.282;2024-03-08T09:05:36;3.20;;;0.95;;
81952;SDS011;71454;55.476;14.282;2024-03-08T09:08:01;2.20;;;0.73;;
81952;SDS011;71454;55.476;14.282;2024-03-08T09:10:28;3.60;;;1.10;;
81952;SDS011;71454;55.476;14.282;2024-03-08T09:12:53;4.13;;;1.10;;
81952;SDS011;71454;55.476;14.282;2024-03-08T09:15:19;4.72;;;1.30;;
81952;SDS011;71454;55.476;14.282;2024-03-08T09:17:45;4.05;;;1.20;;
81952;SDS011;71454;55.476;14.282;2024-03-08T09:20:11;5.15;;;1.20;;
81952;SDS011;71454;55.476;14.282;2024-03-08T09:22:40;2.63;;;0.90;;
81952;SDS011;71454;55.476;14.282;2024-03-08T09:25:05;4.22;;;1.20;;
81952;SDS011;71454;55.476;14.282;2024-03-08T09:27:32;4.15;;;1.02;;
81952;SDS011;71454;55.476;14.282;2024-03-08T09:29:58;2.38;;;0.88;;
81952;SDS011;71454;55.476;14.282;2024-03-08T09:32:23;2.87;;;0.90;;
81952;SDS011;71454;55.476;14.282;2024-03-08T09:34:49;5.90;;;1.23;;
81952;SDS011;71454;55.476;14.282;2024-03-08T09:37:15;4.18;;;1.15;;
81952;SDS011;71454;55.476;14.282;2024-03-08T09:39:40;3.67;;;1.00;;
81952;SDS011;71454;55.476;14.282;2024-03-08T09:42:06;3.17;;;1.05;;
81952;SDS011;71454;55.476;14.282;2024-03-08T09:44:31;2.95;;;1.00;;
81952;SDS011;71454;55.476;14.282;2024-03-08T09:46:57;2.60;;;0.82;;
81952;SDS011;71454;55.476;14.282;2024-03-08T09:49:23;3.45;;;1.10;;
81952;SDS011;71454;55.476;14.282;2024-03-08T09:51:48;4.30;;;1.20;;
81952;SDS011;71454;55.476;14.282;2024-03-08T09:54:16;3.30;;;1.00;;
81952;SDS011;71454;55.476;14.282;2024-03-08T09:56:41;4.10;;;1.02;;
81952;SDS011;71454;55.476;14.282;2024-03-08T09:59:09;3.03;;;1.10;;
81952;SDS011;71454;55.476;14.282;2024-03-08T10:01:54;3.10;;;1.00;;
81952;SDS011;71454;55.476;14.282;2024-03-08T10:04:24;5.18;;;1.20;;
81952;SDS011;71454;55.476;14.282;2024-03-08T10:06:50;4.60;;;1.30;;
81952;SDS011;71454;55.476;14.282;2024-03-08T10:09:16;3.50;;;1.03;;
81952;SDS011;71454;55.476;14.282;2024-03-08T10:11:41;4.75;;;1.15;;
81952;SDS011;71454;55.476;14.282;2024-03-08T10:14:08;4.07;;;1.15;;
81952;SDS011;71454;55.476;14.282;2024-03-08T10:16:33;5.18;;;1.05;;
81952;SDS011;71454;55.476;14.282;2024-03-08T10:19:00;4.07;;;1.00;;
81952;SDS011;71454;55.476;14.282;2024-03-08T10:21:25;2.78;;;1.00;;
81952;SDS011;71454;55.476;14.282;2024-03-08T10:23:51;4.35;;;1.40;;
81952;SDS011;71454;55.476;14.282;2024-03-08T10:26:16;2.42;;;0.98;;
81952;SDS011;71454;55.476;14.282;2024-03-08T10:28:46;3.08;;;1.10;;
81952;SDS011;71454;55.476;14.282;2024-03-08T10:31:15;2.50;;;0.80;;
81952;SDS011;71454;55.476;14.282;2024-03-08T10:33:40;3.08;;;0.98;;
81952;SDS011;71454;55.476;14.282;2024-03-08T10:36:09;3.30;;;0.90;;
81952;SDS011;71454;55.476;14.282;2024-03-08T10:38:35;2.47;;;0.80;;
81952;SDS011;71454;55.476;14.282;2024-03-08T10:41:01;2.72;;;0.80;;
81952;SDS011;71454;55.476;14.282;2024-03-08T10:43:26;3.30;;;1.13;;
81952;SDS011;71454;55.476;14.282;2024-03-08T10:46:18;3.67;;;1.13;;
81952;SDS011;71454;55.476;14.282;2024-03-08T10:48:47;5.28;;;0.98;;
81952;SDS011;71454;55.476;14.282;2024-03-08T10:51:14;3.53;;;0.90;;
81952;SDS011;71454;55.476;14.282;2024-03-08T10:53:40;4.13;;;1.20;;
81952;SDS011;71454;55.476;14.282;2024-03-08T10:56:06;4.18;;;1.20;;
81952;SDS011;71454;55.476;14.282;2024-03-08T10:58:32;6.80;;;1.50;;
81952;SDS011;71454;55.476;14.282;2024-03-08T11:00:59;3.95;;;1.27;;
81952;SDS011;71454;55.476;14.282;2024-03-08T11:06:08;3.72;;;1.05;;
81952;SDS011;71454;55.476;14.282;2024-03-08T11:08:36;3.58;;;1.20;;
81952;SDS011;71454;55.476;14.282;2024-03-08T11:11:03;2.65;;;0.90;;
81952;SDS011;71454;55.476;14.282;2024-03-08T11:13:36;2.75;;;0.90;;
81952;SDS011;71454;55.476;14.282;2024-03-08T11:16:02;4.65;;;1.05;;
81952;SDS011;71454;55.476;14.282;2024-03-08T11:18:32;2.38;;;0.80;;
81952;SDS011;71454;55.476;14.282;2024-03-08T11:20:57;2.85;;;0.90;;
81952;SDS011;71454;55.476;14.282;2024-03-08T11:23:22;2.53;;;0.80;;
81952;SDS011;71454;55.476;14.282;2024-03-08T11:25:48;2.67;;;0.90;;
81952;SDS011;71454;55.476;14.282;2024-03-08T11:28:21;4.32;;;0.90;;
81952;SDS011;71454;55.476;14.282;2024-03-08T11:33:14;4.05;;;1.20;;
81952;SDS011;71454;55.476;14.282;2024-03-08T11:35:40;3.22;;;0.90;;
81952;SDS011;71454;55.476;14.282;2024-03-08T11:38:07;3.53;;;1.02;;
81952;SDS011;71454;55.476;14.282;2024-03-08T11:40:33;3.22;;;0.90;;
81952;SDS011;71454;55.476;14.282;2024-03-08T11:42:59;3.40;;;1.15;;
81952;SDS011;71454;55.476;14.282;2024-03-08T11:45:28;3.58;;;1.08;;
81952;SDS011;71454;55.476;14.282;2024-03-08T11:47:53;2.05;;;0.90;;
81952;SDS011;71454;55.476;14.282;2024-03-08T11:50:20;3.53;;;1.13;;
81952;SDS011;71454;55.476;14.282;2024-03-08T11:52:49;3.55;;;1.02;;
81952;SDS011;71454;55.476;14.282;2024-03-08T11:55:14;2.63;;;0.82;;
81952;SDS011;71454;55.476;14.282;2024-03-08T11:57:39;2.65;;;0.90;;
81952;SDS011;71454;55.476;14.282;2024-03-08T12:00:11;3.38;;;1.00;;
81952;SDS011;71454;55.476;14.282;2024-03-08T12:02:46;2.75;;;0.82;;
81952;SDS011;71454;55.476;14.282;2024-03-08T12:05:15;5.07;;;1.17;;
81952;SDS011;71454;55.476;14.282;2024-03-08T12:07:41;2.60;;;0.75;;
81952;SDS011;71454;55.476;14.282;2024-03-08T12:10:20;3.33;;;1.20;;
81952;SDS011;71454;55.476;14.282;2024-03-08T12:12:50;1.85;;;0.98;;
81952;SDS011;71454;55.476;14.282;2024-03-08T12:15:16;4.13;;;1.05;;
81952;SDS011;71454;55.476;14.282;2024-03-08T12:17:44;3.03;;;1.00;;
81952;SDS011;71454;55.476;14.282;2024-03-08T12:22:41;2.08;;;0.60;;
81952;SDS011;71454;55.476;14.282;2024-03-08T12:25:07;2.55;;;0.80;;
81952;SDS011;71454;55.476;14.282;2024-03-08T12:27:35;2.83;;;1.00;;
81952;SDS011;71454;55.476;14.282;2024-03-08T12:30:14;2.30;;;0.60;;
81952;SDS011;71454;55.476;14.282;2024-03-08T12:32:40;2.80;;;0.75;;
81952;SDS011;71454;55.476;14.282;2024-03-08T12:35:11;4.10;;;0.90;;
81952;SDS011;71454;55.476;14.282;2024-03-08T12:37:36;1.48;;;0.70;;
81952;SDS011;71454;55.476;14.282;2024-03-08T12:40:03;2.00;;;0.65;;
81952;SDS011;71454;55.476;14.282;2024-03-08T12:42:32;2.22;;;0.70;;
81952;SDS011;71454;55.476;14.282;2024-03-08T12:44:57;3.20;;;0.80;;
81952;SDS011;71454;55.476;14.282;2024-03-08T12:47:24;3.20;;;1.00;;
81952;SDS011;71454;55.476;14.282;2024-03-08T12:49:49;3.08;;;0.90;;
81952;SDS011;71454;55.476;14.282;2024-03-08T12:52:15;2.53;;;0.90;;
81952;SDS011;71454;55.476;14.282;2024-03-08T12:54:43;3.13;;;0.85;;
81952;SDS011;71454;55.476;14.282;2024-03-08T12:57:08;2.93;;;0.90;;
81952;SDS011;71454;55.476;14.282;2024-03-08T12:59:34;1.73;;;0.60;;
81952;SDS011;71454;55.476;14.282;2024-03-08T13:01:59;2.28;;;0.80;;
81952;SDS011;71454;55.476;14.282;2024-03-08T13:04:25;1.65;;;0.75;;
81952;SDS011;71454;55.476;14.282;2024-03-08T13:06:50;3.08;;;0.90;;
81952;SDS011;71454;55.476;14.282;2024-03-08T13:09:16;2.60;;;0.80;;
81952;SDS011;71454;55.476;14.282;2024-03-08T13:11:44;2.65;;;0.85;;
81952;SDS011;71454;55.476;14.282;2024-03-08T13:14:09;2.30;;;0.80;;
81952;SDS011;71454;55.476;14.282;2024-03-08T13:16:35;1.48;;;0.70;;
81952;SDS011;71454;55.476;14.282;2024-03-08T13:19:00;2.72;;;0.60;;
81952;SDS011;71454;55.476;14.282;2024-03-08T13:21:26;1.70;;;0.60;;
81952;SDS011;71454;55.476;14.282;2024-03-08T13:23:51;2.50;;;0.90;;
81952;SDS011;71454;55.476;14.282;2024-03-08T13:26:18;3.15;;;0.90;;
81952;SDS011;71454;55.476;14.282;2024-03-08T13:28:44;2.65;;;0.98;;
81952;SDS011;71454;55.476;14.282;2024-03-08T13:31:10;2.00;;;0.90;;
81952;SDS011;71454;55.476;14.282;2024-03-08T13:33:35;2.53;;;0.70;;
81952;SDS011;71454;55.476;14.282;2024-03-08T13:36:02;2.85;;;0.90;;
81952;SDS011;71454;55.476;14.282;2024-03-08T13:38:31;2.28;;;0.90;;
81952;SDS011;71454;55.476;14.282;2024-03-08T13:40:58;3.50;;;1.20;;
81952;SDS011;71454;55.476;14.282;2024-03-08T13:43:23;2.90;;;0.90;;
81952;SDS011;71454;55.476;14.282;2024-03-08T13:45:49;3.25;;;0.95;;
81952;SDS011;71454;55.476;14.282;2024-03-08T13:48:14;2.03;;;0.90;;
81952;SDS011;71454;55.476;14.282;2024-03-08T13:50:40;1.42;;;0.65;;
81952;SDS011;71454;55.476;14.282;2024-03-08T13:53:05;3.40;;;0.90;;
81952;SDS011;71454;55.476;14.282;2024-03-08T13:55:30;5.80;;;1.00;;
81952;SDS011;71454;55.476;14.282;2024-03-08T13:57:56;3.05;;;1.00;;
81952;SDS011;71454;55.476;14.282;2024-03-08T14:00:22;5.20;;;1.00;;
81952;SDS011;71454;55.476;14.282;2024-03-08T14:02:49;1.63;;;0.77;;
81952;SDS011;71454;55.476;14.282;2024-03-08T14:05:15;2.43;;;0.90;;
81952;SDS011;71454;55.476;14.282;2024-03-08T14:07:41;1.50;;;0.75;;
81952;SDS011;71454;55.476;14.282;2024-03-08T14:10:06;4.22;;;1.15;;
81952;SDS011;71454;55.476;14.282;2024-03-08T14:12:32;2.80;;;0.90;;
81952;SDS011;71454;55.476;14.282;2024-03-08T14:14:57;5.82;;;1.63;;
81952;SDS011;71454;55.476;14.282;2024-03-08T14:17:26;3.53;;;1.13;;
81952;SDS011;71454;55.476;14.282;2024-03-08T14:19:53;1.73;;;0.80;;
81952;SDS011;71454;55.476;14.282;2024-03-08T14:22:18;2.45;;;0.88;;
81952;SDS011;71454;55.476;14.282;2024-03-08T14:24:43;12.40;;;5.28;;
81952;SDS011;71454;55.476;14.282;2024-03-08T14:27:10;2.45;;;1.10;;
81952;SDS011;71454;55.476;14.282;2024-03-08T14:29:37;3.08;;;1.10;;
81952;SDS011;71454;55.476;14.282;2024-03-08T14:32:03;2.97;;;0.90;;